createdAt,value
2019-06-07T00:51:51.459Z,91.70
2019-06-07T01:21:52.003Z,90.70
2019-06-07T01:51:54.613Z,91.20
2019-06-07T02:21:57.230Z,90.40
2019-06-07T02:51:59.865Z,91.40
2019-06-07T03:22:04.123Z,92.80
2019-06-07T03:52:06.781Z,92.40
2019-06-07T04:22:09.406Z,92.20
2019-06-07T04:52:12.685Z,92.10
2019-06-07T05:22:15.314Z,92.60
2019-06-07T05:52:17.942Z,92.90
2019-06-07T06:22:20.585Z,92.30
2019-06-07T06:52:23.195Z,91.70
2019-06-07T07:22:28.489Z,90.70
2019-06-07T07:52:31.111Z,89.70
2019-06-07T08:22:33.743Z,90.60
2019-06-07T08:52:36.369Z,90.30
2019-06-07T09:22:38.972Z,89.20
2019-06-07T09:52:57.867Z,87.20
2019-06-07T10:22:45.878Z,81.50
2019-06-07T10:52:48.492Z,82.20
2019-06-07T11:22:51.117Z,77.90
2019-06-07T11:52:54.546Z,75.50
2019-06-07T12:22:57.178Z,75.20
2019-06-07T12:52:59.790Z,76.50
2019-06-07T13:23:02.393Z,75.00
2019-06-07T13:53:05.001Z,72.30
2019-06-07T14:23:07.615Z,65.10
2019-06-07T14:53:10.231Z,59.50
2019-06-07T15:23:13.143Z,57.70
2019-06-07T15:53:15.895Z,56.30
2019-06-07T16:23:18.549Z,54.40
2019-06-07T16:53:21.722Z,54.40
2019-06-07T17:23:24.353Z,54.60
2019-06-07T17:53:29.824Z,54.50
2019-06-07T18:23:31.332Z,55.70
2019-06-07T18:53:34.038Z,57.10
2019-06-07T19:23:36.752Z,59.20
2019-06-07T19:53:40.856Z,61.30
2019-06-07T20:23:43.537Z,63.20
2019-06-07T20:53:46.482Z,64.70
2019-06-07T21:23:49.113Z,65.90
2019-06-07T21:53:51.908Z,67.10
2019-06-07T22:23:54.615Z,68.20
2019-06-07T22:53:57.418Z,69.00
2019-06-07T23:24:00.234Z,69.80
2019-06-07T23:54:03.342Z,70.20
